Terminal Aerodrome Forecast
Issued by NWS Wilmington, OH

Home | Current Version | Previous Version | Text Only | Print | Product List | Glossary On
Versions: 1 2 3 4 5 6 7 8 9 10 11 12 13 14 15 16 17 18 19 20 21 22 23
464
FTUS41 KILN 301732
TAFDAY
TAF
KDAY 301732Z 3018/3118 24007KT P6SM VCSH SCT025 BKN035
     FM310200 24003KT P6SM FEW040
     FM310700 24003KT 3SM BR SCT003
     FM310800 25003KT 2SM BR BKN003
     FM311300 26005KT P6SM BKN015
     FM311600 27008KT P6SM SCT035=

USA.gov is the U.S. government's official web portal to all federal, state and local government web resources and services.